createdAt,value
2018-02-22T00:00:53.202Z,72.27
2018-02-22T00:03:21.435Z,73.80
2018-02-22T00:05:48.890Z,75.93
2018-02-22T00:08:16.335Z,77.47
2018-02-22T00:10:43.807Z,69.10
2018-02-22T00:13:11.255Z,76.83
2018-02-22T00:15:38.747Z,74.37
2018-02-22T00:18:06.199Z,76.93
2018-02-22T00:20:33.651Z,77.77
2018-02-22T00:23:01.115Z,77.47
2018-02-22T00:25:28.592Z,83.03
2018-02-22T00:27:56.812Z,75.80
2018-02-22T00:30:24.294Z,74.40
2018-02-22T00:32:51.755Z,77.97
2018-02-22T00:35:19.195Z,72.43
2018-02-22T00:37:46.659Z,75.57
2018-02-22T00:40:14.139Z,70.17
2018-02-22T00:42:41.580Z,74.47
2018-02-22T00:45:09.027Z,74.63
2018-02-22T00:47:36.495Z,73.80
2018-02-22T00:50:03.951Z,74.00
2018-02-22T00:52:31.407Z,65.33
2018-02-22T00:54:58.878Z,69.77
2018-02-22T00:57:26.352Z,69.27
2018-02-22T00:59:54.572Z,73.83
2018-02-22T01:02:22.047Z,81.00
2018-02-22T01:04:49.496Z,81.10
2018-02-22T01:07:16.931Z,75.97
2018-02-22T01:09:44.402Z,69.47
2018-02-22T01:12:11.929Z,77.93
2018-02-22T01:14:39.422Z,79.63
2018-02-22T01:17:06.879Z,75.00
2018-02-22T01:19:34.346Z,79.47
2018-02-22T01:22:01.821Z,79.93
2018-02-22T01:24:29.287Z,78.17
2018-02-22T01:26:56.746Z,84.30
2018-02-22T01:29:24.188Z,84.47
2018-02-22T01:31:53.177Z,73.87
2018-02-22T01:34:20.651Z,80.33
2018-02-22T01:36:48.889Z,81.57
2018-02-22T01:39:16.357Z,76.97
2018-02-22T01:41:44.673Z,84.90
2018-02-22T01:44:12.906Z,87.90
2018-02-22T01:46:41.148Z,83.77
2018-02-22T01:49:08.607Z,71.07
2018-02-22T01:51:36.043Z,83.07
2018-02-22T01:54:03.503Z,80.17
2018-02-22T01:56:30.943Z,83.30
2018-02-22T01:58:58.423Z,78.13
2018-02-22T02:01:25.896Z,80.77
2018-02-22T02:03:53.344Z,82.47
2018-02-22T02:06:20.799Z,87.23
2018-02-22T02:08:48.242Z,85.60
2018-02-22T02:11:15.689Z,79.30
2018-02-22T02:13:43.130Z,81.03
2018-02-22T02:16:10.615Z,81.53
2018-02-22T02:18:38.068Z,78.17
2018-02-22T02:21:05.511Z,85.43
2018-02-22T02:23:32.967Z,81.03
2018-02-22T02:26:00.406Z,82.80
2018-02-22T02:28:27.869Z,85.07
2018-02-22T02:30:55.335Z,86.23
2018-02-22T02:33:23.570Z,80.43
2018-02-22T02:35:51.028Z,81.57
2018-02-22T02:38:18.501Z,78.13
2018-02-22T02:40:45.973Z,83.37
2018-02-22T02:43:13.435Z,86.23
2018-02-22T02:45:40.887Z,82.97
2018-02-22T02:48:08.366Z,88.73
2018-02-22T02:50:35.825Z,88.77
2018-02-22T02:53:03.301Z,81.10
2018-02-22T02:55:30.782Z,81.57
2018-02-22T02:57:59.042Z,82.70
2018-02-22T03:00:26.486Z,87.30
2018-02-22T03:02:53.928Z,81.70
2018-02-22T03:05:21.371Z,87.43
2018-02-22T03:07:49.598Z,84.30
2018-02-22T03:10:17.038Z,86.93
2018-02-22T03:12:44.515Z,85.80
2018-02-22T03:15:11.954Z,84.17
2018-02-22T03:17:39.416Z,80.27
2018-02-22T03:20:06.866Z,82.90
2018-02-22T03:22:34.318Z,80.60
2018-02-22T03:25:01.776Z,80.80
2018-02-22T03:27:29.235Z,86.47
2018-02-22T03:29:56.695Z,78.70
2018-02-22T03:32:24.156Z,75.40
2018-02-22T03:34:51.615Z,80.83
2018-02-22T03:37:19.052Z,83.43
2018-02-22T03:39:47.287Z,80.97
2018-02-22T03:42:14.751Z,69.37
2018-02-22T03:44:42.960Z,84.47
2018-02-22T03:47:10.415Z,82.30
2018-02-22T03:49:37.896Z,83.30
2018-02-22T03:52:05.370Z,84.30
2018-02-22T03:54:32.825Z,85.63
2018-02-22T03:57:01.101Z,84.40
2018-02-22T03:59:28.560Z,81.33
2018-02-22T04:01:56.811Z,85.07
2018-02-22T04:04:24.293Z,79.57
2018-02-22T04:06:52.526Z,78.40
2018-02-22T04:09:20.031Z,88.07
2018-02-22T04:11:47.518Z,85.40
2018-02-22T04:14:15.767Z,78.07
2018-02-22T04:16:44.101Z,85.77
2018-02-22T04:19:11.574Z,86.60
2018-02-22T04:21:39.034Z,86.50
2018-02-22T04:24:06.533Z,86.93
2018-02-22T04:26:33.997Z,92.93
2018-02-22T04:29:01.482Z,84.63
2018-02-22T04:31:28.948Z,88.30
2018-02-22T04:33:56.430Z,85.90
2018-02-22T04:36:24.649Z,85.53
2018-02-22T04:38:52.131Z,84.60
2018-02-22T04:41:19.632Z,82.27
2018-02-22T04:43:47.120Z,88.03
2018-02-22T04:46:15.343Z,90.93
2018-02-22T04:48:42.830Z,92.97
2018-02-22T04:51:10.326Z,92.50
2018-02-22T04:53:37.818Z,89.77
2018-02-22T04:56:05.299Z,93.57
2018-02-22T04:58:32.782Z,91.23
2018-02-22T05:01:01.058Z,87.50
2018-02-22T05:03:29.294Z,89.23
2018-02-22T05:05:57.525Z,98.23
2018-02-22T05:08:25.014Z,89.53
2018-02-22T05:10:52.481Z,88.90
2018-02-22T05:13:20.730Z,93.97
2018-02-22T05:15:48.210Z,95.00
2018-02-22T05:18:15.679Z,91.10
2018-02-22T05:20:43.198Z,103.63
2018-02-22T05:23:10.752Z,97.83
2018-02-22T05:25:38.215Z,90.37
2018-02-22T05:28:05.701Z,95.10
2018-02-22T05:30:33.180Z,93.53
2018-02-22T05:33:00.638Z,85.57
2018-02-22T05:35:28.110Z,89.03
2018-02-22T05:37:56.431Z,88.13
2018-02-22T05:40:23.910Z,87.63
2018-02-22T05:42:51.473Z,97.30
2018-02-22T05:45:18.933Z,88.50
2018-02-22T05:47:46.428Z,91.03
2018-02-22T05:50:14.660Z,85.90
2018-02-22T05:52:42.164Z,85.40
2018-02-22T05:55:09.633Z,91.70
2018-02-22T05:57:37.092Z,95.03
2018-02-22T06:00:04.579Z,92.80
2018-02-22T06:02:32.868Z,96.60
2018-02-22T06:05:00.318Z,91.83
2018-02-22T06:07:27.803Z,88.37
2018-02-22T06:09:55.278Z,88.80
2018-02-22T06:12:23.518Z,93.53
2018-02-22T06:14:50.999Z,91.23
2018-02-22T06:17:18.489Z,99.33
2018-02-22T06:19:45.979Z,97.90
2018-02-22T06:22:13.454Z,93.10
2018-02-22T06:24:40.909Z,96.50
2018-02-22T06:27:08.409Z,100.03
2018-02-22T06:29:36.662Z,91.27
2018-02-22T06:32:04.934Z,94.07
2018-02-22T06:34:32.406Z,95.10
2018-02-22T06:37:00.905Z,104.53
2018-02-22T06:39:28.369Z,101.17
2018-02-22T06:41:55.871Z,101.67
2018-02-22T06:44:23.330Z,91.77
2018-02-22T06:46:50.786Z,99.63
2018-02-22T06:49:18.269Z,97.40
2018-02-22T06:51:45.731Z,92.60
2018-02-22T06:54:13.241Z,96.67
2018-02-22T06:56:40.748Z,93.10
2018-02-22T06:59:08.176Z,97.53
2018-02-22T07:01:35.649Z,96.83
2018-02-22T07:04:03.909Z,99.00
2018-02-22T07:06:31.366Z,98.27
2018-02-22T07:08:58.838Z,101.30
2018-02-22T07:11:27.066Z,95.20
2018-02-22T07:13:54.583Z,97.30
2018-02-22T07:16:22.014Z,94.57
2018-02-22T07:18:49.485Z,108.40
2018-02-22T07:21:17.746Z,99.50
2018-02-22T07:23:45.210Z,91.57
2018-02-22T07:26:12.694Z,94.33
2018-02-22T07:28:40.925Z,99.43
2018-02-22T07:31:08.411Z,101.50
2018-02-22T07:33:35.887Z,92.67
2018-02-22T07:36:03.370Z,99.73
2018-02-22T07:38:30.855Z,98.50
2018-02-22T07:40:58.331Z,100.50
2018-02-22T07:43:25.791Z,100.10
2018-02-22T07:45:53.322Z,100.93
2018-02-22T07:48:20.778Z,107.13
2018-02-22T07:50:48.263Z,96.93
2018-02-22T07:53:15.726Z,95.93
2018-02-22T07:55:43.190Z,97.20
2018-02-22T07:58:10.642Z,99.10
2018-02-22T08:00:38.886Z,98.63
2018-02-22T08:03:06.342Z,99.17
2018-02-22T08:05:33.875Z,97.07
2018-02-22T08:08:02.162Z,105.93
2018-02-22T08:10:29.615Z,99.67
2018-02-22T08:12:57.092Z,93.30
2018-02-22T08:15:24.537Z,98.20
2018-02-22T08:17:52.038Z,98.37
2018-02-22T08:20:19.504Z,95.90
2018-02-22T08:22:46.998Z,95.53
2018-02-22T08:25:14.470Z,96.80
2018-02-22T08:27:42.046Z,84.80
2018-02-22T08:30:09.703Z,95.60
2018-02-22T08:32:37.980Z,85.63
2018-02-22T08:35:05.465Z,92.50
2018-02-22T08:37:32.926Z,93.50
2018-02-22T08:40:00.402Z,88.10
2018-02-22T08:42:27.858Z,90.93
2018-02-22T08:44:55.342Z,82.53
2018-02-22T08:47:22.808Z,84.13
2018-02-22T08:49:51.027Z,86.33
2018-02-22T08:52:18.505Z,78.23
2018-02-22T08:54:45.991Z,79.63
2018-02-22T08:57:13.456Z,74.43
2018-02-22T08:59:40.938Z,79.50
2018-02-22T09:02:08.478Z,77.00
2018-02-22T09:04:35.938Z,72.67
2018-02-22T09:07:03.423Z,73.80
2018-02-22T09:09:31.663Z,74.10
2018-02-22T09:11:59.162Z,66.63
2018-02-22T09:14:27.471Z,73.20
2018-02-22T09:16:54.951Z,66.57
2018-02-22T09:19:22.409Z,67.80
2018-02-22T09:21:49.868Z,76.73
2018-02-22T09:24:17.376Z,76.53
2018-02-22T09:26:44.829Z,72.53
2018-02-22T09:29:12.334Z,68.40
2018-02-22T09:31:39.774Z,67.77
2018-02-22T09:34:07.254Z,62.90
2018-02-22T09:36:34.775Z,69.47
2018-02-22T09:39:02.230Z,65.77
2018-02-22T09:41:29.682Z,64.17
2018-02-22T09:43:57.162Z,59.23
2018-02-22T09:46:24.619Z,54.90
2018-02-22T09:48:52.128Z,49.93
2018-02-22T09:51:19.605Z,42.03
2018-02-22T09:53:47.075Z,52.90
2018-02-22T09:56:14.549Z,44.03
2018-02-22T09:58:42.048Z,49.20
2018-02-22T10:01:09.519Z,47.73
2018-02-22T10:03:37.867Z,44.37
2018-02-22T10:06:05.322Z,47.27
2018-02-22T10:08:32.803Z,45.60
2018-02-22T10:11:00.284Z,42.90
2018-02-22T10:13:27.755Z,49.67
2018-02-22T10:15:55.234Z,46.47
2018-02-22T10:18:22.678Z,39.43
2018-02-22T10:20:50.178Z,42.97
2018-02-22T10:23:17.630Z,46.10
2018-02-22T10:25:45.110Z,44.97
2018-02-22T10:28:12.598Z,48.03
2018-02-22T10:30:40.071Z,49.20
2018-02-22T10:33:07.538Z,50.57
2018-02-22T10:35:35.022Z,50.90
2018-02-22T10:38:02.502Z,47.73
2018-02-22T10:40:29.998Z,46.63
2018-02-22T10:42:57.489Z,46.07
2018-02-22T10:45:24.953Z,49.83
2018-02-22T10:47:52.407Z,48.87
2018-02-22T10:50:19.891Z,47.13
2018-02-22T10:52:48.142Z,44.70
2018-02-22T10:55:15.607Z,48.40
2018-02-22T10:57:43.107Z,48.53
2018-02-22T11:00:10.563Z,44.03
2018-02-22T11:02:43.730Z,49.73
2018-02-22T11:05:11.979Z,43.30
2018-02-22T11:07:39.467Z,44.03
2018-02-22T11:10:06.926Z,45.47
2018-02-22T11:12:34.415Z,40.87
2018-02-22T11:15:01.882Z,42.17
2018-02-22T11:17:29.331Z,32.83
2018-02-22T11:19:56.826Z,31.07
2018-02-22T11:22:24.331Z,34.00
2018-02-22T11:24:51.818Z,39.80
2018-02-22T11:27:19.307Z,35.40
2018-02-22T11:29:47.552Z,36.27
2018-02-22T11:32:15.060Z,32.37
2018-02-22T11:34:42.521Z,30.47
2018-02-22T11:37:09.973Z,35.70
2018-02-22T11:39:37.480Z,34.63
2018-02-22T11:42:04.935Z,38.67
2018-02-22T11:44:33.207Z,31.17
2018-02-22T11:47:00.672Z,34.30
2018-02-22T11:49:28.184Z,35.33
2018-02-22T11:51:55.643Z,36.17
2018-02-22T11:54:23.122Z,37.27
2018-02-22T11:56:50.596Z,33.73
2018-02-22T11:59:18.138Z,36.20
2018-02-22T12:01:45.594Z,34.80
2018-02-22T12:04:13.063Z,33.47
2018-02-22T12:06:41.310Z,34.10
2018-02-22T12:09:08.861Z,34.70
2018-02-22T12:11:36.392Z,30.83
2018-02-22T12:14:04.100Z,28.70
2018-02-22T12:16:31.675Z,31.07
2018-02-22T12:18:59.170Z,29.33
2018-02-22T12:21:26.631Z,29.67
2018-02-22T12:23:54.114Z,32.40
2018-02-22T12:26:21.620Z,34.00
2018-02-22T12:28:49.077Z,33.20
2018-02-22T12:31:16.577Z,30.97
2018-02-22T12:33:44.794Z,32.17
2018-02-22T12:36:12.256Z,33.83
2018-02-22T12:38:40.530Z,31.60
2018-02-22T12:41:07.988Z,32.30
2018-02-22T12:43:37.125Z,31.07
2018-02-22T12:46:05.359Z,30.73
2018-02-22T12:48:33.038Z,31.23
2018-02-22T12:51:00.498Z,30.70
2018-02-22T12:53:27.991Z,35.13
2018-02-22T12:55:55.451Z,31.33
2018-02-22T12:58:22.902Z,28.20
2018-02-22T13:00:50.407Z,30.30
2018-02-22T13:03:17.898Z,34.30
2018-02-22T13:05:45.375Z,33.10
2018-02-22T13:08:12.864Z,34.27
2018-02-22T13:10:40.326Z,30.23
2018-02-22T13:13:07.816Z,30.43
2018-02-22T13:15:35.281Z,28.10
2018-02-22T13:18:02.766Z,27.20
2018-02-22T13:20:30.226Z,30.50
2018-02-22T13:22:57.755Z,28.23
2018-02-22T13:25:25.212Z,27.77
2018-02-22T13:27:52.662Z,26.43
2018-02-22T13:30:20.150Z,26.77
2018-02-22T13:32:59.362Z,28.80
2018-02-22T13:35:26.862Z,29.97
2018-02-22T13:38:14.963Z,32.37
2018-02-22T13:40:43.221Z,27.47
2018-02-22T13:43:10.839Z,27.30
2018-02-22T13:45:38.283Z,28.90
2018-02-22T13:48:05.809Z,29.77
2018-02-22T13:50:45.051Z,29.57
2018-02-22T13:53:12.539Z,27.83
2018-02-22T13:55:39.990Z,32.43
2018-02-22T13:58:07.474Z,29.70
2018-02-22T14:00:46.726Z,29.43
2018-02-22T14:03:14.201Z,29.30
2018-02-22T14:05:41.718Z,28.67
2018-02-22T14:08:09.199Z,28.23
2018-02-22T14:10:36.663Z,32.10
2018-02-22T14:13:04.134Z,27.03
2018-02-22T14:15:31.582Z,25.47
2018-02-22T14:17:59.059Z,27.90
2018-02-22T14:20:26.574Z,26.10
2018-02-22T14:22:54.047Z,27.77
2018-02-22T14:25:21.502Z,26.97
2018-02-22T14:27:49.754Z,24.53
2018-02-22T14:30:17.210Z,27.97
2018-02-22T14:32:44.695Z,24.53
2018-02-22T14:35:12.177Z,27.47
2018-02-22T14:37:39.664Z,24.33
2018-02-22T14:40:07.149Z,24.43
2018-02-22T14:42:34.662Z,28.47
2018-02-22T14:45:02.919Z,29.93
2018-02-22T14:47:30.404Z,32.30
2018-02-22T14:49:57.990Z,32.00
2018-02-22T14:52:25.484Z,35.10
2018-02-22T14:54:52.987Z,38.07
2018-02-22T14:57:20.470Z,35.73
2018-02-22T14:59:47.962Z,33.23
2018-02-22T15:02:21.150Z,35.03
2018-02-22T15:04:48.631Z,34.10
2018-02-22T15:07:16.871Z,36.23
2018-02-22T15:09:44.338Z,33.57
2018-02-22T15:12:11.806Z,31.67
2018-02-22T15:14:39.295Z,31.50
2018-02-22T15:17:07.534Z,37.07
2018-02-22T15:19:34.994Z,36.80
2018-02-22T15:22:02.509Z,33.97
2018-02-22T15:24:29.974Z,36.33
2018-02-22T15:26:57.450Z,33.17
2018-02-22T15:29:25.693Z,40.13
2018-02-22T15:31:53.164Z,44.03
2018-02-22T15:34:20.654Z,39.80
2018-02-22T15:36:48.124Z,41.80
2018-02-22T15:39:16.386Z,47.73
2018-02-22T15:41:43.839Z,43.70
2018-02-22T15:44:11.325Z,44.23
2018-02-22T15:46:39.553Z,52.60
2018-02-22T15:49:07.011Z,49.07
2018-02-22T15:51:34.493Z,51.53
2018-02-22T15:54:01.950Z,53.17
2018-02-22T15:56:29.427Z,47.93
2018-02-22T15:58:57.658Z,46.57
2018-02-22T16:01:25.166Z,48.47
2018-02-22T16:03:52.622Z,50.70
2018-02-22T16:06:20.863Z,50.07
2018-02-22T16:08:48.346Z,53.23
2018-02-22T16:11:16.565Z,51.43
2018-02-22T16:13:44.045Z,50.53
2018-02-22T16:16:11.522Z,56.03
2018-02-22T16:18:39.002Z,54.70
2018-02-22T16:21:07.234Z,54.87
2018-02-22T16:23:34.718Z,57.17
2018-02-22T16:26:02.198Z,53.80
2018-02-22T16:28:29.651Z,55.30
2018-02-22T16:30:57.161Z,53.47
2018-02-22T16:33:24.622Z,58.90
2018-02-22T16:35:52.107Z,55.63
2018-02-22T16:38:20.336Z,58.50
2018-02-22T16:40:47.810Z,58.87
2018-02-22T16:43:15.271Z,59.43
2018-02-22T16:45:42.757Z,64.40
2018-02-22T16:48:10.986Z,61.73
2018-02-22T16:50:38.446Z,59.53
2018-02-22T16:53:05.970Z,59.70
2018-02-22T16:55:33.420Z,63.30
2018-02-22T16:58:00.881Z,65.23
2018-02-22T17:00:28.372Z,66.40
2018-02-22T17:02:55.867Z,64.37
2018-02-22T17:05:23.334Z,59.63
2018-02-22T17:07:50.914Z,63.20
2018-02-22T17:10:18.362Z,59.40
2018-02-22T17:12:45.813Z,61.30
2018-02-22T17:15:13.320Z,62.93
2018-02-22T17:17:45.710Z,62.13
2018-02-22T17:20:13.207Z,67.57
2018-02-22T17:22:40.658Z,62.50
2018-02-22T17:25:08.128Z,66.27
2018-02-22T17:27:41.219Z,60.33
2018-02-22T17:30:14.498Z,60.27
2018-02-22T17:32:42.742Z,57.83
2018-02-22T17:35:25.113Z,61.30
2018-02-22T17:38:07.454Z,49.03
2018-02-22T17:40:39.426Z,47.90
2018-02-22T17:43:06.911Z,43.60
2018-02-22T17:45:35.150Z,40.37
2018-02-22T17:48:02.619Z,38.90
2018-02-22T17:50:30.094Z,40.57
2018-02-22T17:52:58.326Z,43.80
2018-02-22T17:55:25.813Z,32.67
2018-02-22T17:57:54.048Z,30.97
2018-02-22T18:00:21.497Z,35.37
2018-02-22T18:02:48.996Z,31.37
2018-02-22T18:05:17.239Z,32.67
2018-02-22T18:07:45.473Z,31.07
2018-02-22T18:10:13.695Z,31.97
2018-02-22T18:12:41.192Z,28.53
2018-02-22T18:15:09.428Z,28.00
2018-02-22T18:17:36.910Z,32.70
2018-02-22T18:20:04.376Z,31.93
2018-02-22T18:22:31.866Z,28.40
2018-02-22T18:24:59.338Z,28.40
2018-02-22T18:27:26.793Z,29.33
2018-02-22T18:29:54.287Z,22.77
2018-02-22T18:32:21.790Z,24.87
2018-02-22T18:34:49.398Z,21.70
2018-02-22T18:37:22.594Z,22.27
2018-02-22T18:39:50.052Z,26.27
2018-02-22T18:42:20.373Z,24.63
2018-02-22T18:44:53.586Z,23.97
2018-02-22T18:47:21.041Z,21.63
2018-02-22T18:49:48.606Z,19.40
2018-02-22T18:52:16.061Z,24.17
2018-02-22T18:54:43.563Z,22.90
2018-02-22T18:57:11.014Z,24.23
2018-02-22T18:59:38.509Z,23.27
2018-02-22T19:02:06.013Z,23.07
2018-02-22T19:04:34.250Z,21.90
2018-02-22T19:07:01.714Z,29.37
2018-02-22T19:09:29.207Z,23.17
2018-02-22T19:11:56.670Z,20.80
2018-02-22T19:14:24.149Z,20.43
2018-02-22T19:16:51.645Z,23.93
2018-02-22T19:19:19.139Z,24.10
2018-02-22T19:21:47.395Z,21.70
2018-02-22T19:24:14.869Z,19.63
2018-02-22T19:26:42.359Z,18.07
2018-02-22T19:29:09.863Z,30.20
2018-02-22T19:31:37.325Z,27.00
2018-02-22T19:34:05.603Z,20.70
2018-02-22T19:36:33.053Z,16.90
2018-02-22T19:39:00.520Z,21.17
2018-02-22T19:41:28.031Z,17.80
2018-02-22T19:43:55.519Z,17.60
2018-02-22T19:46:22.977Z,15.90
2018-02-22T19:48:50.463Z,12.47
2018-02-22T19:51:18.698Z,16.97
2018-02-22T19:53:46.262Z,15.07
2018-02-22T19:56:13.726Z,15.07
2018-02-22T19:58:41.214Z,13.73
2018-02-22T20:01:08.743Z,13.27
2018-02-22T20:03:36.178Z,13.13
2018-02-22T20:06:03.626Z,13.73
2018-02-22T20:08:31.125Z,14.07
2018-02-22T20:10:59.347Z,18.07
2018-02-22T20:13:26.797Z,15.47
2018-02-22T20:15:54.295Z,14.87
2018-02-22T20:18:21.782Z,11.83
2018-02-22T20:20:49.262Z,13.93
2018-02-22T20:23:16.743Z,13.47
2018-02-22T20:25:44.229Z,11.40
2018-02-22T20:28:11.706Z,11.83
2018-02-22T20:30:39.162Z,14.53
2018-02-22T20:33:07.395Z,11.87
2018-02-22T20:35:35.635Z,12.33
2018-02-22T20:38:03.131Z,13.53
2018-02-22T20:40:30.618Z,16.87
2018-02-22T20:42:58.087Z,43.80
2018-02-22T20:45:26.348Z,40.43
2018-02-22T20:47:53.830Z,13.57
2018-02-22T20:50:21.299Z,14.13
2018-02-22T20:55:49.406Z,12.97
2018-02-22T20:58:16.920Z,15.27
2018-02-22T21:00:44.379Z,13.73
2018-02-22T21:03:12.630Z,11.97
2018-02-22T21:05:40.103Z,12.50
2018-02-22T21:08:07.585Z,15.57
2018-02-22T21:10:35.039Z,11.33
2018-02-22T21:13:03.253Z,14.60
2018-02-22T21:15:30.797Z,14.37
2018-02-22T21:17:58.251Z,15.13
2018-02-22T21:20:25.731Z,17.37
2018-02-22T21:22:53.187Z,17.47
2018-02-22T21:25:20.677Z,13.77
2018-02-22T21:27:48.197Z,16.20
2018-02-22T21:30:15.662Z,14.70
2018-02-22T21:32:43.215Z,11.67
2018-02-22T21:35:11.393Z,17.27
2018-02-22T21:37:39.614Z,14.97
2018-02-22T21:40:07.105Z,16.37
2018-02-22T21:42:34.558Z,15.93
2018-02-22T21:45:02.511Z,13.37
2018-02-22T21:47:30.918Z,14.57
2018-02-22T21:49:58.382Z,12.90
2018-02-22T21:52:25.841Z,12.90
2018-02-22T21:54:53.339Z,14.57
2018-02-22T21:57:20.806Z,15.63
2018-02-22T21:59:48.266Z,12.70
2018-02-22T22:02:16.506Z,13.67
2018-02-22T22:04:44.730Z,12.57
2018-02-22T22:07:12.213Z,12.50
2018-02-22T22:09:39.671Z,13.47
2018-02-22T22:12:07.142Z,15.00
2018-02-22T22:14:34.589Z,10.20
2018-02-22T22:17:02.057Z,11.03
2018-02-22T22:19:29.530Z,13.97
2018-02-22T22:21:56.985Z,16.23
2018-02-22T22:24:24.490Z,12.47
2018-02-22T22:26:51.949Z,14.27
2018-02-22T22:29:20.166Z,12.20
2018-02-22T22:31:47.662Z,12.97
2018-02-22T22:34:15.878Z,12.63
2018-02-22T22:36:43.366Z,12.53
2018-02-22T22:39:10.846Z,14.40
2018-02-22T22:41:39.061Z,15.37
2018-02-22T22:44:06.583Z,11.60
2018-02-22T22:46:34.808Z,12.93
2018-02-22T22:49:02.266Z,12.60
2018-02-22T22:51:29.712Z,12.60
2018-02-22T22:53:57.190Z,14.00
2018-02-22T22:56:24.642Z,16.87
2018-02-22T22:58:52.144Z,15.80
2018-02-22T23:01:19.602Z,12.00
2018-02-22T23:03:47.079Z,13.50
2018-02-22T23:06:14.555Z,16.70
2018-02-22T23:08:42.013Z,14.33
2018-02-22T23:11:09.470Z,14.07
2018-02-22T23:13:36.984Z,14.30
2018-02-22T23:16:04.446Z,13.33
2018-02-22T23:18:32.670Z,14.23
2018-02-22T23:21:00.139Z,15.67
2018-02-22T23:23:27.594Z,14.20
2018-02-22T23:25:55.068Z,11.30
2018-02-22T23:28:22.514Z,14.93
2018-02-22T23:30:50.015Z,14.30
2018-02-22T23:33:18.258Z,12.77
2018-02-22T23:35:45.742Z,15.73
2018-02-22T23:38:13.982Z,12.83
2018-02-22T23:40:47.010Z,15.20
2018-02-22T23:43:14.503Z,13.27
2018-02-22T23:45:42.023Z,16.33
2018-02-22T23:48:09.506Z,12.20
2018-02-22T23:50:36.992Z,14.87
2018-02-22T23:53:04.454Z,12.70
2018-02-22T23:55:31.907Z,13.10
2018-02-22T23:57:59.370Z,12.30
